Time;durP1;ratioP1;P1;durP2;ratioP2;P2;SDS_P1;SDS_P2;PMS_P1;PMS_P2;Temp;Humidity;BMP_temperature;BMP_pressure;BME280_temperature;BME280_humidity;BME280_pressure;Samples;Min_cycle;Max_cycle;Signal;HPM_P1;HPM_P2
2022/05/17 00:02:20;;;;;;;26.33;12.50;;;13.40;83.90;;;;;;4828980;29;20062;-69
2022/05/17 00:04:45;;;;;;;29.03;13.50;;;13.40;84.20;;;;;;4825178;29;20302;-69
2022/05/17 00:07:12;;;;;;;31.13;12.43;;;13.40;83.60;;;;;;4859922;29;20141;-69
2022/05/17 00:09:37;;;;;;;22.80;12.03;;;13.40;83.80;;;;;;4820815;29;20056;-69
2022/05/17 00:12:04;;;;;;;33.63;12.53;;;13.40;84.00;;;;;;4803572;29;20291;-69
2022/05/17 00:14:31;;;;;;;25.60;12.07;;;13.40;84.10;;;;;;4813920;29;20299;-69
2022/05/17 00:16:57;;;;;;;23.73;11.23;;;13.50;84.10;;;;;;4797622;29;20673;-69
2022/05/17 00:19:24;;;;;;;28.20;11.23;;;13.50;83.90;;;;;;4803558;29;20713;-69
2022/05/17 00:21:51;;;;;;;27.20;11.70;;;13.50;83.80;;;;;;4806353;29;20687;-69
2022/05/17 00:24:18;;;;;;;31.43;11.97;;;13.50;84.60;;;;;;4818300;29;20747;-69
2022/05/17 00:26:44;;;;;;;23.00;11.37;;;13.50;84.10;;;;;;4821055;29;20315;-69
2022/05/17 00:29:11;;;;;;;28.50;11.87;;;13.50;84.10;;;;;;4807250;29;20295;-69
2022/05/17 00:31:37;;;;;;;22.90;11.10;;;13.50;84.30;;;;;;4831095;29;20288;-69
2022/05/17 00:34:03;;;;;;;28.23;12.33;;;13.50;84.10;;;;;;4821094;29;20315;-69
2022/05/17 00:36:31;;;;;;;25.00;12.10;;;13.50;84.30;;;;;;4850213;29;20074;-69
2022/05/17 00:38:56;;;;;;;25.77;12.33;;;13.50;84.10;;;;;;4815394;29;20795;-69
2022/05/17 00:41:22;;;;;;;30.87;13.43;;;13.50;84.50;;;;;;4837743;29;20284;-69
2022/05/17 00:47:11;;;;;;;24.77;11.83;;;13.60;84.90;;;;;;4827455;29;20046;-69
2022/05/17 00:49:51;;;;;;;27.87;12.30;;;13.60;84.50;;;;;;4832306;29;20387;-69
2022/05/17 00:52:28;;;;;;;28.93;12.60;;;13.50;84.50;;;;;;4824009;29;20663;-69
2022/05/17 00:55:01;;;;;;;25.97;12.53;;;13.50;84.40;;;;;;4828246;29;20360;-69
2022/05/17 00:57:46;;;;;;;26.03;12.07;;;13.50;84.50;;;;;;4827708;29;20359;-69
2022/05/17 01:00:14;;;;;;;23.35;12.57;;;13.40;84.30;;;;;;4819495;29;20665;-69
2022/05/17 01:02:42;;;;;;;29.53;12.77;;;13.40;84.50;;;;;;4830468;29;20531;-69
2022/05/17 01:05:09;;;;;;;29.70;13.17;;;13.40;84.30;;;;;;4827517;29;20411;-69
2022/05/17 01:07:42;;;;;;;25.60;12.33;;;13.40;84.30;;;;;;4827090;29;20303;-69
2022/05/17 01:10:09;;;;;;;21.97;11.63;;;13.30;84.50;;;;;;4802355;29;20793;-69
2022/05/17 01:12:36;;;;;;;31.00;12.70;;;13.30;84.50;;;;;;4818057;29;20665;-69
2022/05/17 01:15:06;;;;;;;25.47;12.47;;;13.30;84.40;;;;;;4817840;29;20296;-69
2022/05/17 01:17:35;;;;;;;29.00;12.93;;;13.20;84.50;;;;;;4847565;29;20733;-69
2022/05/17 01:20:04;;;;;;;31.73;12.67;;;13.20;84.40;;;;;;4849170;29;20335;-69
2022/05/17 01:22:30;;;;;;;26.37;12.50;;;13.10;84.60;;;;;;4821529;29;20322;-69
2022/05/17 01:24:55;;;;;;;27.53;12.77;;;13.10;84.50;;;;;;4811571;29;20291;-69
2022/05/17 01:27:28;;;;;;;25.50;12.63;;;13.10;84.80;;;;;;4820496;29;20057;-69
2022/05/17 01:29:55;;;;;;;30.57;13.47;;;13.10;84.60;;;;;;4802870;29;20519;-69
2022/05/17 01:32:22;;;;;;;29.03;12.83;;;13.10;84.50;;;;;;4806346;29;20287;-69
2022/05/17 01:34:47;;;;;;;26.30;13.50;;;13.10;84.40;;;;;;4822296;29;20296;-69
2022/05/17 01:37:14;;;;;;;25.63;12.20;;;13.10;84.50;;;;;;4800036;29;20304;-69
2022/05/17 01:39:41;;;;;;;30.50;13.30;;;13.10;84.60;;;;;;4821546;29;20046;-69
2022/05/17 01:42:10;;;;;;;30.33;13.00;;;13.00;84.60;;;;;;4820064;29;20322;-69
2022/05/17 01:44:37;;;;;;;27.10;13.37;;;13.00;84.50;;;;;;4847328;29;20777;-69
2022/05/17 01:47:03;;;;;;;27.57;12.97;;;13.00;84.40;;;;;;4801982;29;20312;-69
2022/05/17 01:49:29;;;;;;;26.43;12.37;;;12.90;84.40;;;;;;4847897;29;20284;-69
2022/05/17 01:51:55;;;;;;;31.37;12.90;;;12.90;84.40;;;;;;4817227;29;20287;-69
2022/05/17 01:54:21;;;;;;;26.80;13.27;;;12.90;84.50;;;;;;4848790;29;20046;-69
2022/05/17 01:56:47;;;;;;;26.43;13.03;;;12.90;84.60;;;;;;4806991;29;20056;-69
2022/05/17 01:59:13;;;;;;;25.80;13.63;;;12.80;84.50;;;;;;4822779;29;20066;-69
2022/05/17 02:01:39;;;;;;;23.90;13.07;;;12.80;84.90;;;;;;4827292;29;20286;-69
2022/05/17 02:04:05;;;;;;;30.50;13.47;;;12.80;84.70;;;;;;4823631;29;20099;-69
2022/05/17 02:06:31;;;;;;;26.17;13.47;;;12.80;84.90;;;;;;4797315;29;20295;-69
2022/05/17 02:08:56;;;;;;;24.90;13.10;;;12.80;85.40;;;;;;4828733;29;20522;-69
2022/05/17 02:11:22;;;;;;;30.50;13.33;;;12.70;85.10;;;;;;4851222;29;20042;-69
2022/05/17 02:13:48;;;;;;;22.97;12.97;;;12.70;85.20;;;;;;4818420;29;20125;-69
2022/05/17 02:16:14;;;;;;;34.10;14.23;;;12.70;85.10;;;;;;4816377;29;20461;-69
2022/05/17 02:18:39;;;;;;;26.47;13.27;;;12.60;85.10;;;;;;4781842;29;20053;-69
2022/05/17 02:21:05;;;;;;;23.60;13.43;;;12.60;85.30;;;;;;4818555;29;20051;-69
2022/05/17 02:23:31;;;;;;;26.97;13.67;;;12.60;85.20;;;;;;4806001;29;20058;-69
2022/05/17 02:25:57;;;;;;;28.90;14.53;;;12.60;85.10;;;;;;4842547;29;20556;-70
2022/05/17 02:28:23;;;;;;;26.03;13.23;;;12.50;85.20;;;;;;4832264;29;20042;-69
2022/05/17 02:30:49;;;;;;;26.47;13.47;;;12.50;85.30;;;;;;4824290;29;20284;-69
2022/05/17 02:33:15;;;;;;;27.23;13.17;;;12.50;85.30;;;;;;4854406;29;20042;-69
2022/05/17 02:35:42;;;;;;;28.33;13.53;;;12.50;85.40;;;;;;4822741;29;20300;-69
2022/05/17 02:38:08;;;;;;;25.03;13.23;;;12.50;85.40;;;;;;4828765;29;20050;-69
2022/05/17 02:40:34;;;;;;;26.47;14.37;;;12.50;85.30;;;;;;4824843;29;20303;-69
2022/05/17 02:43:00;;;;;;;22.00;13.27;;;12.40;85.40;;;;;;4796072;29;20058;-69
2022/05/17 02:45:25;;;;;;;25.37;13.53;;;12.40;85.50;;;;;;4802606;29;20360;-69
2022/05/17 02:47:52;;;;;;;26.90;13.17;;;12.40;85.50;;;;;;4831221;29;20911;-69
2022/05/17 02:50:19;;;;;;;27.07;13.53;;;12.40;85.60;;;;;;4829553;29;20547;-69
2022/05/17 02:52:45;;;;;;;26.67;13.77;;;12.40;85.70;;;;;;4816336;29;20308;-69
2022/05/17 02:55:11;;;;;;;26.80;13.33;;;12.30;85.90;;;;;;4842382;29;20295;-69
2022/05/17 02:57:38;;;;;;;29.37;13.83;;;12.30;85.90;;;;;;4806239;29;20296;-69
2022/05/17 03:00:08;;;;;;;20.27;13.27;;;12.30;86.20;;;;;;4823312;29;20382;-69
2022/05/17 03:02:34;;;;;;;30.23;13.30;;;12.30;86.40;;;;;;4838867;29;20314;-69
2022/05/17 03:05:00;;;;;;;28.13;13.17;;;12.20;86.80;;;;;;4803115;29;20326;-69
2022/05/17 03:07:26;;;;;;;23.63;12.23;;;12.20;86.90;;;;;;4860353;29;20334;-69
2022/05/17 03:09:51;;;;;;;23.90;12.67;;;12.20;86.80;;;;;;4823202;29;20050;-69
2022/05/17 03:12:17;;;;;;;24.77;13.43;;;12.20;86.80;;;;;;4822658;29;20042;-69
2022/05/17 03:14:43;;;;;;;27.13;12.43;;;12.10;86.70;;;;;;4820025;29;20043;-70
2022/05/17 03:17:14;;;;;;;30.53;13.63;;;12.10;86.80;;;;;;4822527;29;20081;-70
2022/05/17 03:19:40;;;;;;;25.80;12.73;;;12.10;87.20;;;;;;4819258;29;20050;-70
2022/05/17 03:22:06;;;;;;;25.37;13.40;;;12.10;87.50;;;;;;4823799;29;20311;-70
2022/05/17 03:24:32;;;;;;;24.37;13.27;;;12.10;87.60;;;;;;4822394;29;20382;-70
2022/05/17 03:26:58;;;;;;;26.57;13.20;;;12.10;87.60;;;;;;4830123;29;20410;-70
2022/05/17 03:29:25;;;;;;;25.27;12.13;;;12.10;87.70;;;;;;4824854;29;20065;-70
2022/05/17 03:31:51;;;;;;;23.13;11.67;;;12.10;87.90;;;;;;4793474;29;20292;-70
2022/05/17 03:34:17;;;;;;;22.80;12.53;;;12.10;88.00;;;;;;4826727;29;20319;-70
2022/05/17 03:36:43;;;;;;;24.97;13.27;;;12.00;87.80;;;;;;4826116;29;20303;-70
2022/05/17 03:39:09;;;;;;;21.73;12.43;;;12.00;87.70;;;;;;4807617;29;20661;-71
2022/05/17 03:41:35;;;;;;;19.63;12.20;;;12.00;88.00;;;;;;4851930;29;20057;-71
2022/05/17 03:44:01;;;;;;;25.03;12.20;;;12.00;87.80;;;;;;4835035;29;20046;-71
2022/05/17 03:46:27;;;;;;;25.20;11.90;;;12.00;87.80;;;;;;4828382;29;20411;-69
2022/05/17 03:48:52;;;;;;;22.67;11.80;;;12.00;88.10;;;;;;4816377;29;20140;-68
2022/05/17 03:51:19;;;;;;;24.50;11.60;;;12.00;88.20;;;;;;4829748;29;20050;-68
2022/05/17 03:53:47;;;;;;;22.40;12.43;;;12.00;88.50;;;;;;4824218;29;20053;-68
2022/05/17 03:56:13;;;;;;;19.60;11.33;;;12.00;88.40;;;;;;4839523;29;20287;-69
2022/05/17 03:58:39;;;;;;;23.92;12.18;;;12.10;88.40;;;;;;4803948;29;20291;-70
2022/05/17 04:01:06;;;;;;;19.87;11.93;;;12.10;88.20;;;;;;4851037;29;20455;-70
2022/05/17 04:03:32;;;;;;;20.15;11.13;;;12.10;88.10;;;;;;4830188;29;20300;-70
2022/05/17 04:05:58;;;;;;;18.87;10.73;;;12.20;87.80;;;;;;4803151;29;20643;-70
2022/05/17 04:08:24;;;;;;;21.23;11.93;;;12.20;87.60;;;;;;4855048;29;20316;-70
2022/05/17 04:10:50;;;;;;;24.67;11.03;;;12.30;87.60;;;;;;4802927;29;20299;-70
2022/05/17 04:13:16;;;;;;;21.23;10.97;;;12.30;87.60;;;;;;4824396;29;20284;-70
2022/05/17 04:15:42;;;;;;;19.10;11.10;;;12.40;87.40;;;;;;4849976;29;20053;-70
2022/05/17 04:18:08;;;;;;;21.27;11.37;;;12.40;87.60;;;;;;4837456;29;20100;-70
2022/05/17 04:20:35;;;;;;;25.23;11.17;;;12.50;87.40;;;;;;4853358;29;20300;-70
2022/05/17 04:23:01;;;;;;;19.10;10.63;;;12.60;87.40;;;;;;4801080;29;20316;-70
2022/05/17 04:25:27;;;;;;;18.53;10.37;;;12.70;87.30;;;;;;4803019;29;20296;-70
2022/05/17 04:27:54;;;;;;;23.47;12.00;;;12.80;87.10;;;;;;4810581;29;20139;-70
2022/05/17 04:30:20;;;;;;;23.77;11.07;;;12.90;86.90;;;;;;4805991;29;20299;-70
2022/05/17 04:32:47;;;;;;;22.67;11.60;;;13.00;86.80;;;;;;4819050;29;20300;-70
2022/05/17 04:35:14;;;;;;;24.73;10.30;;;13.10;86.80;;;;;;4846431;29;20295;-70
2022/05/17 04:37:40;;;;;;;22.40;11.67;;;13.10;86.50;;;;;;4802159;29;20295;-70
2022/05/17 04:40:09;;;;;;;24.33;10.90;;;13.20;86.40;;;;;;4829932;29;20879;-70
2022/05/17 04:42:36;;;;;;;24.90;10.57;;;13.30;86.40;;;;;;4849890;29;20322;-70
2022/05/17 04:45:04;;;;;;;26.93;10.80;;;13.40;86.20;;;;;;4849017;29;20295;-70
2022/05/17 04:47:30;;;;;;;21.13;8.93;;;13.50;86.00;;;;;;4800567;29;20542;-70
2022/05/17 04:49:56;;;;;;;22.43;12.23;;;13.60;85.90;;;;;;4820876;29;20299;-70
2022/05/17 04:52:23;;;;;;;21.73;10.60;;;13.80;85.70;;;;;;4836151;29;20303;-70
2022/05/17 04:54:50;;;;;;;26.03;10.13;;;14.00;85.60;;;;;;4816711;29;20125;-70
2022/05/17 04:57:16;;;;;;;22.00;10.43;;;14.20;85.40;;;;;;4801772;29;20315;-70
2022/05/17 04:59:41;;;;;;;22.93;12.33;;;14.40;84.80;;;;;;4817306;29;20668;-70
2022/05/17 05:02:07;;;;;;;16.67;9.37;;;14.60;84.00;;;;;;4840619;29;20184;-70
2022/05/17 05:04:33;;;;;;;17.27;10.20;;;14.80;83.80;;;;;;4831001;29;20121;-70
2022/05/17 05:07:00;;;;;;;18.40;9.67;;;15.10;83.40;;;;;;4818787;29;20050;-69
2022/05/17 05:09:26;;;;;;;19.47;8.50;;;15.20;82.50;;;;;;4831678;29;21113;-69
2022/05/17 05:11:53;;;;;;;20.83;11.10;;;15.50;82.50;;;;;;4832391;29;20830;-70
2022/05/17 05:14:18;;;;;;;23.10;11.07;;;15.80;81.50;;;;;;4817728;29;20286;-70
2022/05/17 05:16:44;;;;;;;19.27;9.70;;;16.30;80.70;;;;;;4845549;29;20308;-70
2022/05/17 05:19:10;;;;;;;13.97;9.80;;;16.70;78.30;;;;;;4816860;29;20061;-70
2022/05/17 05:21:36;;;;;;;20.13;9.53;;;16.90;77.20;;;;;;4847157;29;20107;-70
2022/05/17 05:24:04;;;;;;;18.77;12.07;;;16.80;76.90;;;;;;4806108;29;20054;-69
2022/05/17 05:26:32;;;;;;;18.77;11.10;;;16.60;76.20;;;;;;4816034;29;20295;-70
2022/05/17 05:28:58;;;;;;;23.27;12.40;;;16.30;77.60;;;;;;4822492;29;20300;-70
2022/05/17 05:31:23;;;;;;;21.87;11.77;;;16.10;78.10;;;;;;4803792;29;20298;-70
2022/05/17 05:33:49;;;;;;;17.17;10.40;;;15.90;78.50;;;;;;4807443;29;20133;-70
2022/05/17 05:36:15;;;;;;;18.00;10.90;;;15.80;78.90;;;;;;4801450;29;20426;-70
2022/05/17 05:38:41;;;;;;;19.63;11.43;;;15.70;79.40;;;;;;4852343;29;20056;-70
2022/05/17 05:41:10;;;;;;;19.60;11.07;;;15.80;79.70;;;;;;4824070;29;20077;-70
2022/05/17 05:43:36;;;;;;;20.73;11.10;;;15.90;79.60;;;;;;4803622;29;20056;-70
2022/05/17 05:46:02;;;;;;;20.07;12.07;;;15.90;79.50;;;;;;4817545;29;20645;-70
2022/05/17 05:48:27;;;;;;;22.47;11.77;;;16.00;79.00;;;;;;4836546;29;20078;-70
2022/05/17 05:50:53;;;;;;;20.00;11.87;;;16.10;78.30;;;;;;4846974;29;20133;-70
2022/05/17 05:53:19;;;;;;;18.77;12.27;;;16.10;78.50;;;;;;4794900;29;20504;-70
2022/05/17 05:55:48;;;;;;;14.87;10.10;;;16.00;78.70;;;;;;4802080;29;20288;-69
2022/05/17 05:58:14;;;;;;;17.43;11.17;;;16.30;78.60;;;;;;4816169;29;20357;-69
2022/05/17 06:00:40;;;;;;;19.17;12.23;;;16.60;77.80;;;;;;4849975;29;20292;-69
2022/05/17 06:03:07;;;;;;;20.57;11.57;;;16.60;77.20;;;;;;4830703;29;20308;-70
2022/05/17 06:05:34;;;;;;;20.17;10.80;;;16.80;76.60;;;;;;4817951;29;20298;-70
2022/05/17 06:07:59;;;;;;;22.73;14.87;;;16.80;76.50;;;;;;4804601;29;20311;-70
2022/05/17 06:10:25;;;;;;;18.57;12.17;;;17.10;75.50;;;;;;4846131;29;20295;-70
2022/05/17 06:12:51;;;;;;;19.60;12.57;;;17.50;74.90;;;;;;4822185;29;20056;-70
2022/05/17 06:15:17;;;;;;;20.50;12.37;;;18.00;73.00;;;;;;4843837;29;20534;-70
2022/05/17 06:17:43;;;;;;;19.00;13.73;;;18.30;72.00;;;;;;4827041;29;20390;-70
2022/05/17 06:20:14;;;;;;;19.33;15.13;;;18.70;70.80;;;;;;4839697;29;21215;-70
2022/05/17 06:22:41;;;;;;;14.27;11.10;;;19.20;69.50;;;;;;4825588;29;20058;-70
2022/05/17 06:25:07;;;;;;;19.63;10.90;;;19.40;68.10;;;;;;4834762;29;20287;-70
2022/05/17 06:27:33;;;;;;;19.97;13.13;;;19.50;67.80;;;;;;4840439;29;20314;-70
2022/05/17 06:29:59;;;;;;;20.53;12.13;;;19.20;67.80;;;;;;4834073;29;20690;-70
2022/05/17 06:32:25;;;;;;;21.37;12.20;;;19.20;68.10;;;;;;4834608;29;20038;-70
2022/05/17 06:34:51;;;;;;;21.13;14.20;;;19.60;67.60;;;;;;4817272;29;20298;-70
2022/05/17 06:37:17;;;;;;;22.93;10.93;;;20.00;66.80;;;;;;4822798;29;21142;-70
2022/05/17 06:39:42;;;;;;;21.50;16.90;;;19.80;66.40;;;;;;4828158;29;20380;-70
2022/05/17 06:42:09;;;;;;;22.77;17.87;;;19.80;66.10;;;;;;4828830;29;20050;-70
2022/05/17 06:44:37;;;;;;;21.90;13.53;;;19.70;65.80;;;;;;4851734;29;20118;-70
2022/05/17 06:47:04;;;;;;;20.13;15.83;;;19.40;66.80;;;;;;4826394;29;20349;-70
2022/05/17 06:49:30;;;;;;;21.43;14.67;;;19.50;66.50;;;;;;4821998;29;20381;-69
2022/05/17 06:51:59;;;;;;;21.53;15.37;;;19.60;66.80;;;;;;4820978;29;20294;-69
2022/05/17 06:54:25;;;;;;;18.60;15.47;;;19.70;66.40;;;;;;4824123;29;20296;-69
2022/05/17 06:56:51;;;;;;;18.57;12.83;;;19.70;66.40;;;;;;4853797;29;20294;-70
2022/05/17 06:59:18;;;;;;;18.03;14.30;;;19.50;66.40;;;;;;4855143;29;20050;-70
2022/05/17 07:01:44;;;;;;;20.90;14.50;;;19.30;67.20;;;;;;4836687;29;20764;-70
2022/05/17 07:04:10;;;;;;;21.47;15.17;;;19.20;67.40;;;;;;4824407;29;20323;-69
2022/05/17 07:06:36;;;;;;;18.83;15.47;;;19.10;68.00;;;;;;4827208;29;20500;-70
2022/05/17 07:09:02;;;;;;;17.40;13.83;;;18.70;68.20;;;;;;4819305;29;20053;-70
2022/05/17 07:14:12;;;;;;;15.37;12.67;;;18.20;70.30;;;;;;4850695;29;20287;-69
2022/05/17 07:16:37;;;;;;;19.97;13.90;;;18.10;70.60;;;;;;4820276;29;20302;-69
2022/05/17 07:19:04;;;;;;;23.17;16.60;;;18.10;70.60;;;;;;4820335;29;20500;-70
2022/05/17 07:21:29;;;;;;;19.60;15.43;;;18.00;70.90;;;;;;4820768;29;20514;-70
2022/05/17 07:23:55;;;;;;;20.60;15.60;;;17.90;70.70;;;;;;4820043;29;20291;-70
2022/05/17 07:26:21;;;;;;;16.27;10.97;;;17.90;70.70;;;;;;4847288;29;20083;-69
2022/05/17 07:28:48;;;;;;;20.67;13.83;;;18.00;71.10;;;;;;4813854;29;20092;-69
2022/05/17 07:31:14;;;;;;;16.43;12.07;;;18.00;71.00;;;;;;4818747;29;20038;-70
2022/05/17 07:33:40;;;;;;;19.57;16.23;;;18.10;70.70;;;;;;4818760;29;20697;-69
2022/05/17 07:36:08;;;;;;;22.07;13.33;;;18.10;70.50;;;;;;4817783;29;20372;-70
2022/05/17 07:38:35;;;;;;;18.53;16.50;;;18.20;69.90;;;;;;4819986;29;20306;-70
2022/05/17 07:41:01;;;;;;;17.00;12.03;;;18.20;70.10;;;;;;4833179;29;20303;-69
2022/05/17 07:43:27;;;;;;;19.70;13.10;;;18.30;70.10;;;;;;4817697;29;20299;-69
2022/05/17 07:45:53;;;;;;;19.50;13.07;;;18.40;70.00;;;;;;4817809;29;20284;-69
2022/05/17 07:48:20;;;;;;;20.37;14.83;;;18.50;69.60;;;;;;4801713;29;20103;-70
2022/05/17 07:50:46;;;;;;;61.40;15.93;;;18.60;69.00;;;;;;4830565;29;20104;-69
2022/05/17 07:53:14;;;;;;;19.53;12.80;;;18.60;68.40;;;;;;4818851;29;20327;-69
2022/05/17 07:55:42;;;;;;;16.90;11.73;;;18.70;68.40;;;;;;4815313;29;20356;-69
2022/05/17 07:58:08;;;;;;;16.83;10.17;;;18.70;68.20;;;;;;4819863;29;20300;-69
2022/05/17 08:00:35;;;;;;;13.53;9.63;;;18.80;68.20;;;;;;4853495;29;20303;-69
2022/05/17 08:03:01;;;;;;;21.67;13.17;;;19.00;67.90;;;;;;4842805;29;20705;-69
2022/05/17 08:05:28;;;;;;;19.60;11.23;;;19.10;68.30;;;;;;4852531;29;20623;-70
2022/05/17 08:07:54;;;;;;;12.80;10.90;;;19.10;66.40;;;;;;4804312;29;20880;-69
2022/05/17 08:10:21;;;;;;;14.43;12.50;;;19.10;66.70;;;;;;4805575;29;20288;-70
2022/05/17 08:12:47;;;;;;;15.40;11.10;;;19.30;66.60;;;;;;4832533;29;20296;-70
2022/05/17 08:15:14;;;;;;;20.57;15.67;;;19.30;66.20;;;;;;4818018;29;20289;-70
2022/05/17 08:17:40;;;;;;;15.77;11.13;;;19.40;65.30;;;;;;4816713;29;20093;-69
2022/05/17 08:20:09;;;;;;;13.50;8.13;;;19.40;65.70;;;;;;4803171;29;20287;-69
2022/05/17 08:22:42;;;;;;;13.80;8.43;;;19.50;64.80;;;;;;4820124;29;20085;-68
2022/05/17 08:27:54;;;;;;;15.53;8.23;;;19.70;64.60;;;;;;4853071;29;20134;-69
2022/05/17 08:30:22;;;;;;;16.53;10.97;;;19.70;64.80;;;;;;4825286;29;20379;-69
2022/05/17 08:35:54;;;;;;;16.13;10.63;;;20.00;63.60;;;;;;4817375;29;20069;-71
2022/05/17 08:38:24;;;;;;;12.40;8.20;;;20.20;63.20;;;;;;4816160;29;20038;-70
2022/05/17 08:41:08;;;;;;;17.67;11.80;;;20.40;62.60;;;;;;4825126;29;20080;-70
2022/05/17 08:44:02;;;;;;;13.00;8.80;;;20.40;61.60;;;;;;4824541;29;20407;-70
2022/05/17 08:46:55;;;;;;;12.93;7.97;;;20.40;62.10;;;;;;4831726;29;20137;-70
2022/05/17 08:49:23;;;;;;;14.90;9.13;;;20.40;60.40;;;;;;4846991;29;20047;-69
2022/05/17 08:52:15;;;;;;;14.53;8.37;;;20.50;61.90;;;;;;4823748;29;20250;-70
2022/05/17 08:54:45;;;;;;;17.77;8.77;;;20.60;60.90;;;;;;4835577;29;20095;-70
2022/05/17 08:57:36;;;;;;;22.13;11.57;;;20.70;61.10;;;;;;4846674;29;20081;-70
2022/05/17 09:00:09;;;;;;;11.90;7.23;;;20.70;59.50;;;;;;4850781;29;20050;-70
2022/05/17 09:02:45;;;;;;;14.73;10.00;;;20.80;59.30;;;;;;4850095;29;20107;-70
2022/05/17 09:05:33;;;;;;;12.57;8.13;;;20.90;59.50;;;;;;4809334;29;20536;-68
2022/05/17 09:08:19;;;;;;;14.97;11.23;;;21.00;60.10;;;;;;4830642;29;20455;-68
2022/05/17 09:10:50;;;;;;;16.27;9.57;;;21.10;59.80;;;;;;4817716;29;20499;-70
2022/05/17 09:13:20;;;;;;;15.90;13.20;;;21.20;57.90;;;;;;4835637;29;20452;-70
2022/05/17 09:15:46;;;;;;;13.67;10.63;;;21.30;57.70;;;;;;4827180;29;20519;-69
2022/05/17 09:18:17;;;;;;;10.93;7.57;;;21.30;58.10;;;;;;4820182;29;20106;-68
2022/05/17 09:20:44;;;;;;;13.47;9.73;;;21.30;58.40;;;;;;4821610;29;20538;-69
2022/05/17 09:23:10;;;;;;;11.83;7.33;;;21.40;56.10;;;;;;4825545;29;20559;-68
2022/05/17 09:25:47;;;;;;;11.40;7.77;;;21.60;56.50;;;;;;4848431;29;20106;-69
2022/05/17 09:28:22;;;;;;;15.63;7.87;;;21.70;55.90;;;;;;4816642;29;20082;-69
2022/05/17 09:31:05;;;;;;;12.23;10.65;;;21.70;55.30;;;;;;4824175;29;20038;-69
2022/05/17 09:33:31;;;;;;;12.37;11.27;;;21.90;55.80;;;;;;4821925;29;20231;-69
2022/05/17 09:36:01;;;;;;;11.40;10.03;;;22.00;53.90;;;;;;4849692;29;20041;-69
2022/05/17 09:38:32;;;;;;;11.67;8.50;;;21.90;54.10;;;;;;4843713;29;20050;-69
2022/05/17 09:40:58;;;;;;;11.60;9.67;;;22.10;54.10;;;;;;4852744;29;20052;-69
2022/05/17 09:43:54;;;;;;;12.70;11.07;;;22.20;53.80;;;;;;4823086;29;20043;-69
2022/05/17 09:46:35;;;;;;;13.83;8.67;;;22.20;53.30;;;;;;4825124;29;20153;-70
2022/05/17 09:52:34;;;;;;;10.30;7.30;;;22.20;52.00;;;;;;4817898;29;20112;-69
2022/05/17 09:55:21;;;;;;;11.27;8.37;;;22.30;51.90;;;;;;4817540;29;20110;-69
2022/05/17 09:57:56;;;;;;;10.23;6.83;;;22.40;52.40;;;;;;4816505;29;20061;-69
2022/05/17 10:00:54;;;;;;;9.93;7.57;;;22.50;51.00;;;;;;4811819;29;20595;-69
2022/05/17 10:03:29;;;;;;;13.20;9.10;;;22.50;48.50;;;;;;4806973;29;20065;-69
2022/05/17 10:05:56;;;;;;;;;;;22.60;49.60;;;;;;4857031;29;20132;-69
2022/05/17 10:08:23;;;;;;;12.93;9.47;;;22.60;52.00;;;;;;4848471;29;20004;-70
2022/05/17 10:11:03;;;;;;;9.90;8.77;;;22.70;53.10;;;;;;4856140;29;20050;-70
2022/05/17 10:13:44;;;;;;;19.27;17.63;;;22.80;49.20;;;;;;4812143;29;20461;-70
2022/05/17 10:16:21;;;;;;;30.73;9.30;;;22.80;49.20;;;;;;4833165;29;20660;-69
2022/05/17 10:18:54;;;;;;;13.30;7.80;;;22.80;49.10;;;;;;4847447;29;20508;-69
2022/05/17 10:21:31;;;;;;;15.03;8.70;;;22.70;48.50;;;;;;4820691;29;20046;-69
2022/05/17 10:24:21;;;;;;;14.83;11.67;;;22.70;51.80;;;;;;4840941;29;20065;-69
2022/05/17 10:27:09;;;;;;;9.93;6.93;;;22.80;51.20;;;;;;4817556;29;20094;-69
2022/05/17 10:29:58;;;;;;;11.47;6.67;;;22.60;50.40;;;;;;4834867;29;20078;-69
2022/05/17 10:32:39;;;;;;;14.20;8.87;;;22.70;51.80;;;;;;4832549;29;20046;-69
2022/05/17 10:35:35;;;;;;;10.47;7.37;;;22.90;50.70;;;;;;4832812;29;20060;-69
2022/05/17 10:38:13;;;;;;;12.85;9.35;;;22.80;50.10;;;;;;4840383;29;20053;-70
2022/05/17 10:40:45;;;;;;;10.30;7.37;;;22.90;51.00;;;;;;4807827;29;20193;-69
2022/05/17 10:43:18;;;;;;;16.03;12.13;;;23.10;50.90;;;;;;4847266;29;20115;-69
2022/05/17 10:45:55;;;;;;;11.43;9.27;;;23.30;49.90;;;;;;4817002;29;20046;-69
2022/05/17 10:48:49;;;;;;;12.73;11.60;;;23.30;49.90;;;;;;4822141;29;20049;-70
2022/05/17 10:51:29;;;;;;;13.70;12.47;;;23.50;48.90;;;;;;4828414;29;20053;-69
2022/05/17 10:54:31;;;;;;;14.80;13.60;;;23.60;49.20;;;;;;4822819;29;20047;-70
2022/05/17 10:57:03;;;;;;;13.67;12.57;;;23.40;49.10;;;;;;4849706;29;20082;-69
2022/05/17 10:59:47;;;;;;;13.20;10.13;;;23.10;50.10;;;;;;4855194;29;20594;-69
2022/05/17 11:03:01;;;;;;;11.43;10.30;;;23.30;50.10;;;;;;4826345;29;20042;-69
2022/05/17 11:05:38;;;;;;;12.20;10.83;;;23.50;49.40;;;;;;4870935;29;20061;-70
2022/05/17 11:08:32;;;;;;;10.80;8.27;;;23.90;48.70;;;;;;4862265;29;20094;-69
2022/05/17 11:11:20;;;;;;;10.47;8.17;;;24.10;48.70;;;;;;4855906;29;20081;-69
2022/05/17 11:13:49;;;;;;;8.63;7.27;;;24.20;47.00;;;;;;4818217;29;20042;-69
2022/05/17 11:16:26;;;;;;;10.90;9.17;;;24.30;46.70;;;;;;4824456;29;20061;-69
2022/05/17 11:19:03;;;;;;;19.40;17.70;;;24.30;46.60;;;;;;4819868;29;20046;-70
2022/05/17 11:21:49;;;;;;;9.80;7.40;;;24.40;46.40;;;;;;4823736;29;20233;-69
2022/05/17 11:24:36;;;;;;;14.93;13.53;;;24.20;47.80;;;;;;4819598;29;20065;-69
2022/05/17 11:27:08;;;;;;;12.13;10.03;;;24.30;46.90;;;;;;4852174;29;20046;-70
2022/05/17 11:29:56;;;;;;;11.80;9.80;;;24.50;46.50;;;;;;4827197;29;20047;-70
2022/05/17 11:32:29;;;;;;;12.03;10.80;;;24.70;46.30;;;;;;4804493;29;20047;-69
2022/05/17 11:34:57;;;;;;;14.37;12.93;;;24.90;46.80;;;;;;4835332;29;20046;-70
2022/05/17 11:37:32;;;;;;;11.83;10.40;;;24.90;46.20;;;;;;4799278;29;20057;-69
2022/05/17 11:40:04;;;;;;;11.50;10.23;;;24.70;45.70;;;;;;4844543;29;20467;-69
2022/05/17 11:42:33;;;;;;;13.60;12.47;;;24.60;45.90;;;;;;4821554;29;20081;-70
2022/05/17 11:45:23;;;;;;;11.23;9.57;;;24.70;46.00;;;;;;4850030;29;20141;-69
2022/05/17 11:47:54;;;;;;;10.97;8.60;;;24.40;45.70;;;;;;4831648;29;20100;-69
2022/05/17 11:50:28;;;;;;;11.07;9.83;;;23.90;45.80;;;;;;4854246;29;20081;-70
2022/05/17 11:53:22;;;;;;;15.55;12.38;;;23.80;46.00;;;;;;4844892;29;20046;-70
2022/05/17 11:56:12;;;;;;;11.10;8.47;;;23.60;45.30;;;;;;4826650;29;20065;-69
2022/05/17 11:58:38;;;;;;;11.50;10.23;;;23.80;45.70;;;;;;4854586;29;20523;-69
2022/05/17 12:01:28;;;;;;;8.53;7.73;;;24.10;47.30;;;;;;4861037;29;20057;-69
2022/05/17 12:04:00;;;;;;;11.87;10.70;;;24.50;44.10;;;;;;4845710;29;20057;-69
2022/05/17 12:06:41;;;;;;;11.50;10.47;;;24.60;45.10;;;;;;4813470;29;20118;-69
2022/05/17 12:09:34;;;;;;;12.57;9.60;;;24.70;45.10;;;;;;4835544;29;20078;-69
2022/05/17 12:12:24;;;;;;;8.73;7.93;;;24.80;43.60;;;;;;4844154;29;20046;-69
2022/05/17 12:15:11;;;;;;;8.40;7.60;;;24.70;42.70;;;;;;4836658;29;20050;-69
2022/05/17 12:17:45;;;;;;;11.17;10.17;;;24.80;43.40;;;;;;4799489;29;20429;-70
2022/05/17 12:20:41;;;;;;;10.10;9.20;;;24.90;43.30;;;;;;4818881;29;20054;-69
2022/05/17 12:23:22;;;;;;;10.07;7.73;;;25.10;42.10;;;;;;4833677;29;20058;-70
2022/05/17 12:26:06;;;;;;;9.73;8.83;;;25.20;41.80;;;;;;4849077;29;20050;-69
2022/05/17 12:28:46;;;;;;;9.90;9.07;;;25.20;42.00;;;;;;4839903;29;20046;-70
2022/05/17 12:31:19;;;;;;;11.00;10.13;;;25.20;42.20;;;;;;4836865;29;20039;-69
2022/05/17 12:33:47;;;;;;;11.23;10.13;;;25.30;41.80;;;;;;4843915;29;20084;-69
2022/05/17 12:36:26;;;;;;;12.87;11.77;;;25.50;41.90;;;;;;4850074;29;20568;-69
2022/05/17 12:44:51;;;;;;;;;;;25.60;40.50;;;;;;4820231;29;20122;-69
2022/05/17 12:47:30;;;;;;;11.13;9.07;;;25.50;40.70;;;;;;4807944;29;19968;-70
2022/05/17 12:49:57;;;;;;;12.03;11.07;;;25.50;42.00;;;;;;4837331;29;20078;-70
2022/05/17 12:52:29;;;;;;;12.93;11.90;;;25.60;42.50;;;;;;4818426;29;20054;-70
2022/05/17 12:54:58;;;;;;;12.90;11.70;;;25.90;42.50;;;;;;4854037;29;20434;-70
2022/05/17 12:57:31;;;;;;;13.10;11.93;;;26.10;42.50;;;;;;4847649;29;20042;-70
2022/05/17 13:00:10;;;;;;;14.17;12.73;;;26.30;41.80;;;;;;4813624;29;20042;-70
2022/05/17 13:02:44;;;;;;;11.10;10.10;;;26.20;40.90;;;;;;4842914;29;20514;-70
2022/05/17 13:05:29;;;;;;;12.77;11.67;;;26.20;42.50;;;;;;4825294;29;20057;-70
2022/05/17 13:08:10;;;;;;;15.60;14.23;;;26.30;42.20;;;;;;4853144;29;20042;-70
2022/05/17 13:10:38;;;;;;;16.63;15.37;;;26.30;43.20;;;;;;4846446;29;20049;-70